Time;durP1;ratioP1;P1;durP2;ratioP2;P2;SDS_P1;SDS_P2;PMS_P1;PMS_P2;Temp;Humidity;BMP_temperature;BMP_pressure;BME280_temperature;BME280_humidity;BME280_pressure;Samples;Min_cycle;Max_cycle;Signal;HPM_P1;HPM_P2
2021/12/10 00:01:43;;;;;;;32.90;19.47;;;11.00;77.10;;;;;;10202069;29;20724;-89
2021/12/10 00:06:50;;;;;;;35.03;20.93;;;11.00;77.30;;;;;;10233184;29;20245;-90
2021/12/10 00:12:00;;;;;;;31.70;18.30;;;11.30;76.20;;;;;;10247085;29;20658;-90
2021/12/10 00:17:06;;;;;;;32.37;20.20;;;11.40;75.90;;;;;;10230864;29;20322;-90
2021/12/10 00:22:25;;;;;;;38.33;19.87;;;11.40;75.80;;;;;;10206351;29;20273;-89
2021/12/10 00:27:29;;;;;;;38.13;20.90;;;11.40;75.20;;;;;;10212580;29;20698;-89
2021/12/10 00:32:38;;;;;;;45.97;25.50;;;11.20;74.60;;;;;;10246280;29;20256;-89
2021/12/10 00:37:41;;;;;;;33.17;18.50;;;11.40;73.70;;;;;;10226915;29;20303;-88
2021/12/10 00:42:44;;;;;;;29.67;18.47;;;11.30;75.50;;;;;;10211855;29;20316;-88
2021/12/10 00:47:48;;;;;;;42.10;21.57;;;11.20;76.00;;;;;;10228444;29;20291;-88
2021/12/10 00:52:53;;;;;;;43.53;23.70;;;11.40;75.10;;;;;;10245036;29;20691;-90
2021/12/10 00:57:57;;;;;;;31.93;17.57;;;11.40;73.30;;;;;;10219456;29;20241;-88
2021/12/10 01:03:00;;;;;;;44.07;23.70;;;11.20;75.80;;;;;;10189417;29;20676;-89
2021/12/10 01:08:03;;;;;;;30.83;18.23;;;10.90;76.00;;;;;;10206214;29;20273;-89
2021/12/10 01:13:10;;;;;;;29.77;18.20;;;11.30;75.80;;;;;;10225953;28;20288;-89
2021/12/10 01:28:54;;;;;;;41.00;23.73;;;11.00;70.00;;;;;;10227322;29;20269;-89
2021/12/10 01:33:57;;;;;;;30.17;18.07;;;10.70;74.90;;;;;;10188548;29;20257;-89
2021/12/10 01:39:00;;;;;;;24.37;16.80;;;11.00;76.10;;;;;;10204650;29;20375;-89
2021/12/10 01:44:16;;;;;;;32.00;18.87;;;11.00;76.20;;;;;;10173078;29;20273;-90
2021/12/10 01:49:19;;;;;;;29.40;17.43;;;10.80;77.10;;;;;;10205525;29;20257;-90
2021/12/10 01:54:29;;;;;;;31.30;18.37;;;11.00;76.50;;;;;;10217395;29;20264;-89
2021/12/10 01:59:34;;;;;;;29.40;18.60;;;11.10;76.20;;;;;;10221256;29;20264;-89
2021/12/10 02:04:38;;;;;;;27.37;17.13;;;11.00;76.50;;;;;;10226303;29;20277;-88
2021/12/10 02:09:41;;;;;;;30.33;17.90;;;11.20;75.80;;;;;;10225965;29;20755;-89
2021/12/10 02:14:45;;;;;;;26.10;16.93;;;11.20;75.80;;;;;;10220953;29;20273;-89
2021/12/10 02:19:48;;;;;;;29.97;16.40;;;11.40;75.30;;;;;;10225151;29;20686;-89
2021/12/10 02:24:51;;;;;;;29.27;17.90;;;11.40;75.00;;;;;;10210784;28;20241;-89
2021/12/10 02:29:53;;;;;;;27.27;17.30;;;11.40;74.80;;;;;;10214016;29;20787;-89
2021/12/10 02:34:56;;;;;;;25.53;16.43;;;11.40;74.80;;;;;;10228122;29;20653;-88
2021/12/10 02:39:59;;;;;;;28.97;16.67;;;11.40;74.60;;;;;;10199745;29;20251;-89
2021/12/10 02:45:02;;;;;;;31.37;18.60;;;11.40;75.40;;;;;;10250221;29;20248;-90
2021/12/10 02:50:08;;;;;;;40.63;21.70;;;11.20;75.40;;;;;;10250612;29;20650;-89
2021/12/10 02:55:15;;;;;;;43.30;24.67;;;11.10;72.80;;;;;;10230896;29;20239;-89
2021/12/10 03:00:24;;;;;;;29.90;17.00;;;10.90;74.10;;;;;;10231958;29;20944;-89
2021/12/10 03:05:27;;;;;;;25.87;16.10;;;10.90;76.40;;;;;;10232552;29;20285;-89
2021/12/10 03:10:32;;;;;;;27.87;16.27;;;11.00;75.90;;;;;;10230283;29;20697;-89
2021/12/10 03:15:35;;;;;;;27.33;15.90;;;11.40;75.10;;;;;;10225230;29;20675;-89
2021/12/10 03:20:38;;;;;;;35.27;17.77;;;11.40;75.00;;;;;;10210508;29;20271;-89
2021/12/10 03:25:42;;;;;;;37.60;20.53;;;11.60;74.30;;;;;;10192970;29;20252;-89
2021/12/10 03:30:51;;;;;;;25.57;15.57;;;11.60;73.10;;;;;;10195045;29;20244;-89
2021/12/10 03:35:55;;;;;;;33.33;19.33;;;11.60;73.90;;;;;;10192036;29;20712;-89
2021/12/10 03:40:59;;;;;;;31.80;18.43;;;11.60;73.70;;;;;;10192384;29;20273;-89
2021/12/10 03:46:04;;;;;;;27.83;17.47;;;11.60;73.40;;;;;;10197818;29;20674;-90
2021/12/10 03:51:10;;;;;;;27.87;17.43;;;11.30;74.50;;;;;;10223237;29;20295;-88
2021/12/10 03:56:17;;;;;;;23.83;16.17;;;11.40;74.50;;;;;;10192112;29;20303;-90
2021/12/10 04:01:27;;;;;;;28.03;16.80;;;11.50;74.10;;;;;;10192405;29;20283;-89
2021/12/10 04:06:29;;;;;;;28.33;16.00;;;11.80;73.40;;;;;;10224445;29;20302;-90
2021/12/10 04:11:32;;;;;;;34.97;20.73;;;11.80;73.00;;;;;;10228606;29;20245;-90
2021/12/10 04:16:35;;;;;;;27.10;15.60;;;11.80;72.20;;;;;;10246065;29;20260;-91
2021/12/10 04:21:41;;;;;;;27.87;17.17;;;11.60;73.40;;;;;;10227596;29;20270;-89
2021/12/10 04:26:44;;;;;;;31.93;17.40;;;11.60;73.40;;;;;;10246657;28;20247;-90
2021/12/10 04:31:52;;;;;;;30.30;17.40;;;11.70;73.30;;;;;;10220354;29;20294;-89
2021/12/10 04:36:57;;;;;;;33.57;18.23;;;11.50;73.80;;;;;;10189642;29;20233;-89
2021/12/10 04:41:59;;;;;;;25.63;15.43;;;11.50;73.40;;;;;;10229308;29;20274;-89
2021/12/10 04:47:02;;;;;;;28.57;16.90;;;11.60;73.40;;;;;;10227041;28;20706;-89
2021/12/10 04:52:06;;;;;;;23.93;16.13;;;11.60;73.30;;;;;;10210557;29;20303;-90
2021/12/10 04:57:15;;;;;;;45.43;26.30;;;11.50;73.60;;;;;;10217475;29;20270;-90
2021/12/10 05:02:18;;;;;;;51.60;27.23;;;11.30;69.70;;;;;;10228181;29;20258;-90
2021/12/10 05:07:22;;;;;;;26.97;16.87;;;11.40;72.40;;;;;;10176618;29;20319;-90
2021/12/10 05:12:24;;;;;;;30.00;18.30;;;11.60;73.00;;;;;;10228944;29;20241;-89
2021/12/10 05:17:31;;;;;;;29.40;17.47;;;11.50;73.50;;;;;;10245091;29;20685;-89
2021/12/10 05:22:34;;;;;;;31.10;17.87;;;11.10;72.40;;;;;;10245825;29;20339;-90
2021/12/10 05:27:37;;;;;;;29.80;16.63;;;11.30;74.10;;;;;;10242225;29;20249;-88
2021/12/10 05:32:40;;;;;;;29.73;17.00;;;11.30;74.00;;;;;;10206694;29;20291;-88
2021/12/10 05:37:43;;;;;;;32.93;17.93;;;11.50;73.60;;;;;;10211110;29;20295;-88
2021/12/10 05:42:45;;;;;;;30.83;17.43;;;11.40;73.50;;;;;;10188351;29;20284;-89
2021/12/10 05:47:48;;;;;;;29.53;17.13;;;11.40;73.60;;;;;;10228860;29;20723;-88
2021/12/10 05:52:51;;;;;;;26.53;15.67;;;11.10;74.70;;;;;;10225969;29;20272;-89
2021/12/10 05:57:54;;;;;;;30.73;17.30;;;11.00;74.50;;;;;;10245069;28;20279;-88
2021/12/10 06:02:57;;;;;;;28.43;16.90;;;11.20;74.10;;;;;;10212285;29;20338;-88
2021/12/10 06:08:02;;;;;;;28.73;18.17;;;11.10;74.50;;;;;;10198372;28;20952;-88
2021/12/10 06:13:04;;;;;;;33.37;18.53;;;11.00;74.60;;;;;;10242553;28;20249;-88
2021/12/10 06:18:08;;;;;;;46.90;24.07;;;11.10;74.20;;;;;;10233752;28;20238;-88
2021/12/10 06:23:11;;;;;;;37.93;21.07;;;11.20;74.50;;;;;;10251785;28;20302;-86
2021/12/10 06:28:16;;;;;;;46.80;25.67;;;11.20;74.30;;;;;;10250010;28;20255;-87
2021/12/10 06:33:20;;;;;;;38.20;22.83;;;11.10;71.70;;;;;;10242633;28;20690;-87
2021/12/10 06:38:24;;;;;;;32.03;18.13;;;11.10;74.00;;;;;;10251008;29;20250;-88
2021/12/10 06:43:27;;;;;;;28.50;17.73;;;10.90;74.90;;;;;;10213053;29;20255;-87
2021/12/10 06:48:30;;;;;;;34.57;19.50;;;11.00;74.60;;;;;;10251134;28;20683;-87
2021/12/10 06:53:32;;;;;;;30.87;17.60;;;10.90;74.80;;;;;;10244697;28;20253;-86
2021/12/10 06:58:36;;;;;;;45.23;24.37;;;11.10;74.70;;;;;;10229071;28;20687;-87
2021/12/10 07:03:40;;;;;;;33.10;19.80;;;11.20;73.10;;;;;;10212634;29;20318;-87
2021/12/10 07:08:45;;;;;;;36.97;20.00;;;11.00;74.50;;;;;;10208569;29;20699;-88
2021/12/10 07:13:51;;;;;;;34.33;19.47;;;10.90;75.40;;;;;;10192965;29;20836;-88
2021/12/10 07:18:55;;;;;;;29.97;17.37;;;10.90;74.00;;;;;;10210671;29;20296;-87
2021/12/10 07:24:01;;;;;;;31.53;19.03;;;10.70;75.70;;;;;;10192589;29;20327;-87
2021/12/10 07:29:06;;;;;;;30.03;18.33;;;11.00;75.20;;;;;;10217744;29;20238;-87
2021/12/10 07:34:09;;;;;;;62.43;33.63;;;10.50;75.70;;;;;;10238360;29;20251;-87
2021/12/10 07:39:13;;;;;;;26.60;16.17;;;10.50;70.20;;;;;;10231906;29;20860;-87
2021/12/10 07:44:16;;;;;;;36.33;20.90;;;10.70;76.40;;;;;;10244410;29;20266;-87
2021/12/10 07:49:27;;;;;;;84.20;41.53;;;10.90;74.90;;;;;;10215466;29;20267;-87
2021/12/10 07:54:30;;;;;;;90.43;41.93;;;10.70;70.50;;;;;;10242521;28;20856;-87
2021/12/10 07:59:34;;;;;;;50.53;26.13;;;10.00;70.60;;;;;;10229345;29;20236;-87
2021/12/10 08:04:38;;;;;;;61.40;29.57;;;10.10;77.00;;;;;;10212800;29;20247;-88
2021/12/10 08:09:42;;;;;;;67.20;36.37;;;9.90;74.80;;;;;;10229429;29;20240;-88
2021/12/10 08:14:46;;;;;;;86.30;38.10;;;10.40;74.90;;;;;;10245629;29;20687;-88
2021/12/10 08:19:48;;;;;;;49.13;25.03;;;10.40;72.60;;;;;;10252904;28;20235;-87
2021/12/10 08:24:51;;;;;;;44.03;24.37;;;10.20;75.10;;;;;;10229473;29;20299;-86
2021/12/10 08:29:54;;;;;;;59.43;29.50;;;10.00;75.90;;;;;;10212945;29;20288;-86
2021/12/10 08:34:57;;;;;;;31.20;19.20;;;10.10;77.40;;;;;;10190355;29;20254;-87
2021/12/10 08:40:00;;;;;;;73.77;38.83;;;10.00;78.10;;;;;;10230191;28;20299;-88
2021/12/10 08:45:05;;;;;;;33.00;19.53;;;10.30;72.50;;;;;;10241791;29;20313;-87
2021/12/10 08:50:09;;;;;;;48.60;26.77;;;10.30;77.10;;;;;;10204497;28;20619;-88
2021/12/10 08:55:12;;;;;;;72.03;36.33;;;10.50;74.30;;;;;;10228318;29;20350;-88
2021/12/10 09:00:17;;;;;;;77.57;39.73;;;10.50;74.30;;;;;;10231427;29;20238;-88
2021/12/10 09:05:20;;;;;;;82.40;34.83;;;10.50;71.80;;;;;;10213014;29;20273;-87
2021/12/10 09:10:31;;;;;;;39.60;21.07;;;10.50;76.20;;;;;;10230940;28;20289;-87
2021/12/10 09:15:34;;;;;;;31.03;19.43;;;10.60;75.90;;;;;;10243693;29;20908;-86
2021/12/10 09:20:39;;;;;;;46.20;24.60;;;10.40;76.70;;;;;;10225874;29;20294;-87
2021/12/10 09:25:43;;;;;;;48.47;23.83;;;11.00;75.50;;;;;;10202717;29;20318;-87
2021/12/10 09:30:51;;;;;;;79.83;39.67;;;11.40;74.00;;;;;;10208682;29;20240;-87
2021/12/10 09:35:54;;;;;;;32.27;17.87;;;11.10;73.60;;;;;;10196437;29;20253;-88
2021/12/10 09:41:03;;;;;;;87.13;40.83;;;11.00;75.10;;;;;;10228440;29;21036;-88
2021/12/10 09:46:07;;;;;;;56.07;28.10;;;10.70;71.80;;;;;;10219353;29;20259;-87
2021/12/10 09:51:14;;;;;;;40.80;22.37;;;10.30;75.10;;;;;;10215734;29;20287;-85
2021/12/10 09:56:17;;;;;;;56.00;27.83;;;10.50;75.30;;;;;;10200434;29;20241;-87
2021/12/10 10:01:31;;;;;;;47.57;25.93;;;10.40;76.10;;;;;;10211933;29;20748;-87
2021/12/10 10:06:44;;;;;;;44.50;22.57;;;10.50;76.80;;;;;;10229276;29;20298;-87
2021/12/10 10:11:55;;;;;;;39.70;20.63;;;10.60;76.80;;;;;;10227989;29;20683;-87
2021/12/10 10:16:58;;;;;;;40.70;21.23;;;10.80;75.60;;;;;;10219050;29;20670;-87
2021/12/10 10:22:05;;;;;;;52.57;25.47;;;11.30;74.70;;;;;;10215275;29;20724;-87
2021/12/10 10:27:16;;;;;;;45.80;23.60;;;11.40;73.90;;;;;;10253382;28;20735;-86
2021/12/10 10:32:25;;;;;;;66.50;30.90;;;11.30;74.20;;;;;;10282674;28;20256;-87
2021/12/10 10:37:30;;;;;;;43.37;22.40;;;11.00;72.70;;;;;;10250117;28;20810;-86
2021/12/10 10:42:33;;;;;;;44.77;22.30;;;11.30;74.20;;;;;;10192182;29;20261;-86
2021/12/10 10:47:36;;;;;;;94.00;45.20;;;11.60;73.30;;;;;;10211797;29;20244;-87
2021/12/10 10:52:44;;;;;;;60.33;30.57;;;11.40;71.00;;;;;;10241091;29;20296;-87
2021/12/10 10:57:58;;;;;;;44.87;24.57;;;10.40;74.20;;;;;;10222370;28;20695;-88
2021/12/10 11:03:10;;;;;;;95.00;44.53;;;10.20;77.60;;;;;;10220660;28;20279;-87
2021/12/10 11:08:13;;;;;;;40.73;23.40;;;10.00;76.20;;;;;;10283314;28;20248;-87
2021/12/10 11:13:23;;;;;;;63.73;31.83;;;10.10;78.30;;;;;;10235551;28;20279;-87
2021/12/10 11:18:28;;;;;;;101.07;49.57;;;9.70;77.60;;;;;;10232903;28;20250;-87
2021/12/10 11:23:31;;;;;;;81.93;38.60;;;9.10;73.30;;;;;;10191881;29;20315;-87
2021/12/10 11:28:37;;;;;;;51.20;26.90;;;8.40;80.40;;;;;;10195155;29;20318;-89
2021/12/10 11:33:51;;;;;;;82.03;38.10;;;8.90;82.50;;;;;;10237282;29;20327;-87
2021/12/10 11:38:57;;;;;;;96.63;45.77;;;10.90;76.10;;;;;;10247566;28;20302;-87
2021/12/10 11:49:46;;;;;;;84.10;42.03;;;9.10;72.30;;;;;;10207396;29;20279;-87
2021/12/10 11:54:56;;;;;;;106.07;48.37;;;8.30;76.90;;;;;;10221124;28;20317;-86
2021/12/10 12:00:13;;;;;;;100.60;48.57;;;7.80;78.20;;;;;;10214331;28;20297;-87
2021/12/10 12:05:20;;;;;;;90.30;45.90;;;7.50;79.20;;;;;;10246197;29;20325;-87
2021/12/10 12:10:37;;;;;;;88.77;43.00;;;8.10;78.10;;;;;;10227870;29;20822;-88
2021/12/10 12:15:47;;;;;;;95.20;43.80;;;7.40;83.20;;;;;;10241850;29;20241;-88
2021/12/10 12:26:29;;;;;;;97.17;46.60;;;7.20;83.30;;;;;;10223605;28;20330;-86
2021/12/10 12:31:54;;;;;;;79.87;41.50;;;7.40;81.70;;;;;;10255618;28;20823;-88
2021/12/10 12:37:01;;;;;;;69.17;35.50;;;7.70;82.20;;;;;;10244499;28;20246;-87
2021/12/10 12:42:37;;;;;;;115.00;52.77;;;8.70;81.60;;;;;;10229809;28;20316;-88
2021/12/10 12:47:46;;;;;;;97.77;44.10;;;9.10;75.70;;;;;;10240098;29;20290;-88
2021/12/10 12:53:17;;;;;;;77.90;37.47;;;8.90;79.10;;;;;;10231499;29;20258;-88
2021/12/10 12:58:26;;;;;;;68.10;34.07;;;9.00;77.80;;;;;;10246961;28;20285;-88
2021/12/10 13:03:53;;;;;;;92.83;45.00;;;9.80;77.90;;;;;;10232143;28;20294;-87
2021/12/10 13:09:27;;;;;;;64.30;34.80;;;10.50;74.40;;;;;;10231944;28;20692;-90
2021/12/10 13:14:55;;;;;;;96.33;46.30;;;9.30;78.30;;;;;;10224780;29;20241;-87
2021/12/10 13:20:03;;;;;;;99.63;48.40;;;10.00;71.70;;;;;;10217527;28;20693;-87
2021/12/10 13:25:11;;;;;;;94.53;46.43;;;9.70;70.50;;;;;;10219009;28;20322;-89
2021/12/10 13:30:19;;;;;;;95.83;48.27;;;9.20;73.20;;;;;;10235697;28;20237;-87
2021/12/10 13:35:24;;;;;;;111.47;53.07;;;9.00;71.70;;;;;;10227699;28;20265;-87
2021/12/10 13:40:29;;;;;;;90.40;45.63;;;8.50;73.90;;;;;;10215162;29;20290;-88
2021/12/10 13:45:34;;;;;;;90.87;41.47;;;9.30;74.60;;;;;;10231725;28;20262;-87
2021/12/10 13:50:50;;;;;;;97.20;45.53;;;10.70;74.30;;;;;;10217382;29;20231;-87
2021/12/10 13:56:00;;;;;;;94.27;48.67;;;11.10;69.20;;;;;;10225368;28;20785;-87
2021/12/10 14:01:14;;;;;;;100.53;46.90;;;10.60;68.50;;;;;;10216193;29;20236;-87
2021/12/10 14:06:29;;;;;;;97.27;46.30;;;9.80;72.00;;;;;;10230674;28;20322;-89
2021/12/10 14:11:51;;;;;;;103.93;50.40;;;8.90;74.00;;;;;;10224997;28;20321;-88
2021/12/10 14:16:57;;;;;;;95.23;47.83;;;9.00;73.00;;;;;;10232541;28;20281;-88
2021/12/10 14:22:57;;;;;;;104.97;50.83;;;8.90;74.60;;;;;;10241666;28;20812;-85
2021/12/10 14:28:31;;;;;;;83.67;41.60;;;8.50;73.30;;;;;;10077946;29;20672;-88
2021/12/10 14:33:54;;;;;;;94.97;47.07;;;9.20;76.40;;;;;;10052636;29;20272;-88
2021/12/10 14:39:03;;;;;;;78.63;40.13;;;9.50;74.40;;;;;;10077915;29;20306;-88
2021/12/10 14:44:30;;;;;;;93.83;44.97;;;9.40;75.60;;;;;;10070767;29;20721;-87
2021/12/10 14:49:49;;;;;;;76.53;39.77;;;8.90;76.30;;;;;;10101052;29;20359;-88
2021/12/10 14:55:29;;;;;;;83.10;42.00;;;9.30;76.50;;;;;;9750905;29;10000203;-87
2021/12/10 15:01:04;;;;;;;81.97;41.60;;;9.80;74.70;;;;;;10156964;28;20314;-87
2021/12/10 15:06:27;;;;;;;87.30;44.33;;;10.20;73.40;;;;;;10209165;29;20271;-88
2021/12/10 15:11:54;;;;;;;94.33;46.13;;;10.20;73.00;;;;;;10236236;29;20275;-87
2021/12/10 15:17:17;;;;;;;83.93;41.70;;;10.50;72.30;;;;;;10230557;28;20642;-87
2021/12/10 15:22:33;;;;;;;103.00;49.70;;;10.00;72.90;;;;;;10231253;29;20239;-87
2021/12/10 15:27:38;;;;;;;95.07;46.60;;;9.60;71.90;;;;;;10241381;29;20267;-86
2021/12/10 15:32:58;;;;;;;80.83;39.87;;;8.30;76.60;;;;;;10221827;28;20311;-88
2021/12/10 15:38:11;;;;;;;78.03;42.17;;;7.40;82.90;;;;;;10240563;28;20251;-87
2021/12/10 15:43:17;;;;;;;73.57;40.37;;;7.40;79.80;;;;;;10235019;29;20368;-87
2021/12/10 15:48:23;;;;;;;81.33;44.83;;;8.00;80.90;;;;;;10203372;29;20242;-87
2021/12/10 15:53:57;;;;;;;94.67;47.73;;;8.10;80.30;;;;;;10225300;29;20306;-87
2021/12/10 15:59:01;;;;;;;79.47;44.53;;;8.80;77.00;;;;;;10221989;29;20285;-87
2021/12/10 16:04:09;;;;;;;75.10;36.83;;;8.70;75.70;;;;;;10227483;28;20323;-87
2021/12/10 16:09:18;;;;;;;71.30;37.97;;;9.40;77.20;;;;;;10247949;28;20298;-87
2021/12/10 16:14:25;;;;;;;76.90;42.53;;;9.80;76.20;;;;;;10218056;28;20680;-88
2021/12/10 16:19:30;;;;;;;84.63;41.50;;;9.50;72.10;;;;;;10241341;28;20244;-88
2021/12/10 16:24:40;;;;;;;61.30;32.93;;;9.20;75.20;;;;;;10232002;28;20275;-88
2021/12/10 16:29:59;;;;;;;107.50;54.63;;;9.30;76.70;;;;;;10216040;29;20747;-88
2021/12/10 16:35:14;;;;;;;89.37;43.07;;;7.80;73.20;;;;;;10212316;29;20332;-89
2021/12/10 16:40:25;;;;;;;72.80;38.53;;;7.80;80.40;;;;;;10188939;29;20743;-88
2021/12/10 16:45:31;;;;;;;73.07;38.17;;;7.90;80.30;;;;;;10235723;28;20262;-88
2021/12/10 16:50:36;;;;;;;84.33;41.90;;;7.70;81.70;;;;;;10216025;29;20281;-89
2021/12/10 16:55:38;;;;;;;62.13;32.70;;;7.70;80.70;;;;;;10227681;28;20221;-88
2021/12/10 17:00:46;;;;;;;63.90;35.10;;;8.50;82.10;;;;;;10236062;28;20235;-89
2021/12/10 17:05:50;;;;;;;63.50;33.07;;;9.40;78.40;;;;;;10211921;29;20304;-88
2021/12/10 17:11:06;;;;;;;65.77;36.83;;;9.70;76.50;;;;;;10207686;28;20302;-90
2021/12/10 17:16:16;;;;;;;59.30;31.97;;;9.50;77.10;;;;;;10235476;29;20244;-89
2021/12/10 17:21:26;;;;;;;64.82;35.38;;;9.60;77.40;;;;;;9939514;29;10001006;-89
2021/12/10 17:26:32;;;;;;;71.13;36.50;;;9.60;76.80;;;;;;10204985;28;20468;-88
2021/12/10 17:31:37;;;;;;;58.03;32.67;;;9.60;75.80;;;;;;10229305;28;20275;-87
2021/12/10 17:36:50;;;;;;;87.87;46.50;;;8.80;79.10;;;;;;10210123;28;20361;-87
2021/12/10 17:41:54;;;;;;;116.13;55.87;;;10.00;69.10;;;;;;10233208;29;20338;-87
2021/12/10 17:47:02;;;;;;;126.93;60.37;;;10.00;64.30;;;;;;10236005;29;20775;-86
2021/12/10 17:52:14;;;;;;;107.80;54.53;;;9.10;64.20;;;;;;10248112;28;20319;-86
2021/12/10 17:57:40;;;;;;;108.27;55.63;;;9.10;65.30;;;;;;10242304;28;20712;-86
2021/12/10 18:02:43;;;;;;;101.50;52.63;;;9.00;66.30;;;;;;10205041;29;20281;-86
2021/12/10 18:07:48;;;;;;;102.43;50.27;;;9.00;67.50;;;;;;10228692;29;20308;-86
2021/12/10 18:12:56;;;;;;;109.13;53.67;;;9.40;67.00;;;;;;10244771;29;20246;-86
2021/12/10 18:18:06;;;;;;;107.80;53.47;;;9.40;66.60;;;;;;10244500;29;20317;-86
2021/12/10 18:23:13;;;;;;;100.33;52.33;;;9.00;67.90;;;;;;10218915;29;20314;-86
2021/12/10 18:28:18;;;;;;;97.60;50.30;;;9.30;68.30;;;;;;10228060;29;20267;-86
2021/12/10 18:33:23;;;;;;;99.27;50.37;;;9.50;68.30;;;;;;10243306;29;20280;-86
2021/12/10 18:38:28;;;;;;;83.80;43.23;;;9.50;68.50;;;;;;10213642;29;20285;-80
2021/12/10 18:43:33;;;;;;;108.90;51.53;;;5.80;91.70;;;;;;10232671;29;20397;-82
2021/12/10 18:48:38;;;;;;;92.00;44.73;;;8.20;79.20;;;;;;10225197;29;20293;-83
2021/12/10 18:54:00;;;;;;;81.13;41.80;;;7.90;80.00;;;;;;10223200;29;20326;-83
2021/12/10 18:59:07;;;;;;;103.13;48.23;;;8.20;82.10;;;;;;10217077;29;20728;-83
2021/12/10 19:04:20;;;;;;;89.43;41.83;;;7.60;81.00;;;;;;10225452;29;20334;-83
2021/12/10 19:09:28;;;;;;;80.03;39.30;;;8.60;83.60;;;;;;10223521;28;20336;-83
2021/12/10 19:14:37;;;;;;;102.77;51.57;;;8.80;84.60;;;;;;10223071;29;20309;-83
2021/12/10 19:19:52;;;;;;;96.60;47.87;;;8.60;81.40;;;;;;10242450;29;20345;-83
2021/12/10 19:25:02;;;;;;;87.73;42.53;;;8.00;85.10;;;;;;10232122;29;20319;-83
2021/12/10 19:30:14;;;;;;;136.03;62.80;;;6.80;93.30;;;;;;10223456;29;20325;-83
2021/12/10 19:35:40;;;;;;;82.00;40.70;;;5.40;92.50;;;;;;10240003;29;20258;-83
2021/12/10 19:40:55;;;;;;;68.40;34.57;;;6.50;99.90;;;;;;10239820;29;20341;-83
2021/12/10 19:46:15;;;;;;;87.00;43.03;;;8.30;99.60;;;;;;10223276;29;20317;-83
2021/12/10 19:51:40;;;;;;;74.00;39.07;;;8.80;95.30;;;;;;10201818;28;20289;-83
2021/12/10 19:56:54;;;;;;;70.97;38.27;;;8.90;95.80;;;;;;10224361;29;20241;-84
2021/12/10 20:02:29;;;;;;;91.53;45.63;;;8.70;97.10;;;;;;10215969;29;20283;-83
2021/12/10 20:07:39;;;;;;;63.87;34.47;;;8.80;98.00;;;;;;10194096;29;20270;-83
2021/12/10 20:12:53;;;;;;;73.13;37.50;;;9.50;98.50;;;;;;10232426;29;20271;-83
2021/12/10 20:18:07;;;;;;;100.67;50.53;;;9.50;95.80;;;;;;10252819;28;20307;-83
2021/12/10 20:23:19;;;;;;;74.37;40.20;;;9.10;95.90;;;;;;10212275;28;20247;-83
2021/12/10 20:28:36;;;;;;;85.87;39.50;;;8.40;98.80;;;;;;10259431;28;20815;-83
2021/12/10 20:33:45;;;;;;;68.10;35.63;;;8.90;99.90;;;;;;10244615;28;20647;-84
2021/12/10 20:39:11;;;;;;;61.17;34.37;;;8.90;99.90;;;;;;10234959;28;20295;-83
2021/12/10 20:44:27;;;;;;;55.90;30.90;;;9.50;99.90;;;;;;10230731;28;20270;-83
2021/12/10 20:49:47;;;;;;;66.53;34.67;;;9.80;99.90;;;;;;10260374;28;20713;-83
2021/12/10 20:54:53;;;;;;;75.43;38.03;;;9.40;98.70;;;;;;10220582;28;20322;-83
2021/12/10 21:00:03;;;;;;;63.90;33.37;;;9.40;99.90;;;;;;10225822;28;20243;-83
2021/12/10 21:05:20;;;;;;;73.73;36.23;;;9.10;99.90;;;;;;10216680;29;20682;-82
2021/12/10 21:10:31;;;;;;;72.67;38.13;;;9.30;99.90;;;;;;10217954;29;20587;-82
2021/12/10 21:15:44;;;;;;;103.60;50.70;;;8.70;99.90;;;;;;10231220;28;20235;-83
2021/12/10 21:21:06;;;;;;;62.57;35.20;;;9.20;99.90;;;;;;10251475;28;20244;-82
2021/12/10 21:26:18;;;;;;;70.50;33.60;;;9.20;99.90;;;;;;10245832;28;20342;-83
2021/12/10 21:31:29;;;;;;;62.90;33.67;;;9.00;99.90;;;;;;10254492;28;20287;-82
2021/12/10 21:42:12;;;;;;;57.77;31.13;;;10.20;99.90;;;;;;10257671;28;20240;-82
2021/12/10 21:47:19;;;;;;;56.67;29.47;;;11.20;99.00;;;;;;10257573;28;20271;-83
2021/12/10 21:52:30;;;;;;;102.97;55.67;;;11.60;96.90;;;;;;10219345;29;20242;-83
2021/12/10 21:57:37;;;;;;;62.90;33.73;;;8.00;58.80;;;;;;10225000;29;20246;-85
2021/12/10 22:02:43;;;;;;;61.47;32.93;;;7.60;99.90;;;;;;10221667;29;20242;-85
2021/12/10 22:07:54;;;;;;;63.57;32.87;;;7.50;99.90;;;;;;10203845;29;20313;-85
2021/12/10 22:13:11;;;;;;;81.77;41.23;;;8.40;99.90;;;;;;10215600;29;20314;-84
2021/12/10 22:18:20;;;;;;;91.03;48.03;;;8.30;99.90;;;;;;10206599;28;20238;-85
2021/12/10 22:23:36;;;;;;;86.63;44.50;;;7.60;99.90;;;;;;10229301;29;20242;-86
2021/12/10 22:28:56;;;;;;;82.03;42.87;;;8.60;99.90;;;;;;10215387;29;20274;-86
2021/12/10 22:34:08;;;;;;;54.67;29.13;;;7.50;99.90;;;;;;10208006;28;20312;-85
2021/12/10 22:39:15;;;;;;;61.63;33.00;;;7.50;99.90;;;;;;10246225;28;20682;-86
2021/12/10 22:44:26;;;;;;;56.13;31.20;;;8.40;99.90;;;;;;10247961;28;20761;-85
2021/12/10 22:49:36;;;;;;;110.20;55.53;;;8.70;99.90;;;;;;10240155;28;20253;-85
2021/12/10 22:54:41;;;;;;;125.40;54.53;;;;;;;;;;10226417;29;20262;-84
2021/12/10 22:59:54;;;;;;;83.10;33.60;;;-3.70;99.90;;;;;;10223258;28;20268;-85
2021/12/10 23:05:08;;;;;;;73.67;32.83;;;2.40;99.90;;;;;;10221502;29;20700;-85
2021/12/10 23:10:22;;;;;;;60.60;32.40;;;5.80;99.90;;;;;;10223387;29;20238;-86
2021/12/10 23:15:42;;;;;;;115.20;50.40;;;7.10;99.90;;;;;;10208804;29;20746;-84
2021/12/10 23:20:51;;;;;;;92.77;41.90;;;7.00;99.90;;;;;;10208353;29;20271;-85
2021/12/10 23:25:55;;;;;;;70.57;34.10;;;7.40;99.90;;;;;;10204185;29;20258;-85
2021/12/10 23:31:07;;;;;;;78.67;35.97;;;8.00;99.90;;;;;;10247578;29;20765;-85
2021/12/10 23:36:13;;;;;;;74.90;37.50;;;8.30;99.90;;;;;;10213828;29;20387;-85
2021/12/10 23:41:49;;;;;;;65.10;32.60;;;8.50;99.90;;;;;;10234433;29;20242;-85
2021/12/10 23:46:51;;;;;;;68.37;33.70;;;8.90;99.90;;;;;;10243119;29;20269;-85
2021/12/10 23:52:06;;;;;;;70.33;37.17;;;9.40;99.90;;;;;;10245468;28;20241;-85
2021/12/10 23:57:14;;;;;;;86.30;41.23;;;9.80;99.90;;;;;;10245897;29;20297;-85
